createdAt,value
2023-01-23T00:03:41.590Z,101061.66
2023-01-23T00:07:44.692Z,101067.75
2023-01-23T00:11:47.809Z,101059.88
2023-01-23T00:15:52.662Z,101061.56
2023-01-23T00:19:55.973Z,101056.66
2023-01-23T00:24:01.478Z,101059.88
2023-01-23T00:28:05.069Z,101064.16
2023-01-23T00:32:09.728Z,101064.16
2023-01-23T00:36:15.019Z,101062.22
2023-01-23T00:40:18.523Z,101074.38
2023-01-23T00:44:21.888Z,101080.38
2023-01-23T00:48:26.558Z,101081.97
2023-01-23T00:52:30.351Z,101070.09
2023-01-23T00:56:33.818Z,101062.31
2023-01-23T01:00:37.146Z,101069.38
2023-01-23T01:04:41.689Z,101063.44
2023-01-23T01:08:44.853Z,101055.75
2023-01-23T01:12:47.957Z,101066.31
2023-01-23T01:16:51.122Z,101058.53
2023-01-23T01:20:56.269Z,101045.53
2023-01-23T01:24:59.373Z,101055.31
2023-01-23T01:29:02.492Z,101060.56
2023-01-23T01:33:05.746Z,101067.38
2023-01-23T01:37:10.163Z,101066.69
2023-01-23T01:41:14.590Z,101067.56
2023-01-23T01:45:54.990Z,101077.06
2023-01-23T01:50:01.247Z,101077.22
2023-01-23T01:54:10.926Z,101072.03
2023-01-23T01:58:15.191Z,101073.84
2023-01-23T02:02:23.738Z,101075.47
2023-01-23T02:06:27.555Z,101059.69
2023-01-23T02:10:32.498Z,101050.13
2023-01-23T02:14:36.385Z,101040.44
2023-01-23T02:18:44.695Z,101028.00
2023-01-23T02:22:54.002Z,101033.28
2023-01-23T02:26:58.486Z,101041.97
2023-01-23T02:31:02.746Z,101048.31
2023-01-23T02:35:12.820Z,101043.41
2023-01-23T02:39:19.209Z,101030.47
2023-01-23T02:43:35.284Z,101053.69
2023-01-23T02:47:41.504Z,101066.84
2023-01-23T02:51:44.643Z,101081.34
2023-01-23T02:55:47.664Z,101084.03
2023-01-23T03:00:09.986Z,101081.53
2023-01-23T03:04:13.091Z,101080.47
2023-01-23T03:08:16.061Z,101083.59
2023-01-23T03:12:20.440Z,101078.50
2023-01-23T03:16:24.895Z,101081.56
2023-01-23T03:20:28.747Z,101089.16
2023-01-23T03:24:35.049Z,101095.16
2023-01-23T03:28:55.730Z,101098.72
2023-01-23T03:33:00.222Z,101079.66
2023-01-23T03:37:04.443Z,101061.19
2023-01-23T03:41:23.376Z,101048.06
2023-01-23T03:45:27.297Z,101035.78
2023-01-23T03:49:32.358Z,101033.91
2023-01-23T03:53:35.740Z,101052.00
2023-01-23T03:57:41.819Z,101056.31
2023-01-23T04:02:04.898Z,101049.50
2023-01-23T04:06:11.268Z,101060.78
2023-01-23T04:10:14.655Z,101066.06
2023-01-23T04:14:18.731Z,101045.56
2023-01-23T04:18:21.955Z,101053.41
2023-01-23T04:22:26.395Z,101064.53
2023-01-23T04:26:29.454Z,101066.50
2023-01-23T04:30:32.683Z,101057.91
2023-01-23T04:34:42.279Z,101056.19
2023-01-23T04:38:47.479Z,101067.41
2023-01-23T04:42:57.065Z,101069.63
2023-01-23T04:47:08.656Z,101078.16
2023-01-23T04:51:11.805Z,101064.25
2023-01-23T04:55:16.594Z,101049.31
2023-01-23T04:59:21.035Z,101053.44
2023-01-23T05:03:24.647Z,101060.25
2023-01-23T05:07:28.557Z,101061.91
2023-01-23T05:11:43.906Z,101052.25
2023-01-23T05:15:49.215Z,101051.19
2023-01-23T05:19:53.307Z,101045.00
2023-01-23T05:23:56.379Z,101056.19
2023-01-23T05:28:00.963Z,101040.72
2023-01-23T05:32:04.138Z,101031.03
2023-01-23T05:36:13.268Z,101034.63
2023-01-23T05:40:16.477Z,101045.91
2023-01-23T05:44:40.803Z,101052.72
2023-01-23T05:48:51.633Z,101066.75
2023-01-23T05:52:56.323Z,101066.13
2023-01-23T05:56:59.618Z,101081.00
2023-01-23T06:01:29.749Z,101092.38
2023-01-23T06:05:55.850Z,101110.63
2023-01-23T06:09:59.100Z,101119.31
2023-01-23T06:14:02.879Z,101121.47
2023-01-23T06:18:07.649Z,101130.31
2023-01-23T06:22:10.716Z,101116.47
2023-01-23T06:26:31.934Z,101125.03
2023-01-23T06:30:35.603Z,101125.31
2023-01-23T06:34:43.142Z,101126.84
2023-01-23T06:38:47.281Z,101137.94
2023-01-23T06:42:55.800Z,101132.94
2023-01-23T06:46:59.425Z,101128.56
2023-01-23T06:51:04.636Z,101132.81
2023-01-23T06:55:08.421Z,101134.72
2023-01-23T06:59:11.635Z,101148.69
2023-01-23T07:03:16.205Z,101140.13
2023-01-23T07:07:20.814Z,101142.06
2023-01-23T07:11:25.782Z,101150.75
2023-01-23T07:15:32.411Z,101154.28
2023-01-23T07:19:35.433Z,101155.16
2023-01-23T07:23:43.895Z,101157.66
2023-01-23T07:27:46.985Z,101156.03
2023-01-23T07:31:50.111Z,101156.03
2023-01-23T07:35:53.336Z,101160.53
2023-01-23T07:39:57.738Z,101166.72
2023-01-23T07:44:00.786Z,101153.19
2023-01-23T07:48:04.043Z,101163.38
2023-01-23T07:52:07.235Z,101147.66
2023-01-23T07:56:11.726Z,101138.84
2023-01-23T08:00:15.240Z,101159.63
2023-01-23T08:04:18.476Z,101169.31
2023-01-23T08:08:21.555Z,101173.97
2023-01-23T08:12:26.077Z,101161.34
2023-01-23T08:16:29.411Z,101169.31
2023-01-23T08:20:32.476Z,101164.50
2023-01-23T08:24:35.832Z,101172.28
2023-01-23T08:28:40.431Z,101176.06
2023-01-23T08:32:43.559Z,101177.75
2023-01-23T08:36:46.890Z,101176.84
2023-01-23T08:40:51.777Z,101163.06
2023-01-23T08:44:56.287Z,101173.63
2023-01-23T08:48:59.324Z,101163.59
2023-01-23T08:53:02.334Z,101165.22
2023-01-23T08:57:05.597Z,101172.03
2023-01-23T09:01:14.001Z,101173.78
2023-01-23T09:05:17.420Z,101174.06
2023-01-23T09:09:20.423Z,101168.00
2023-01-23T09:13:23.675Z,101162.69
2023-01-23T09:17:28.500Z,101166.81
2023-01-23T09:21:31.559Z,101167.53
2023-01-23T09:25:34.593Z,101170.41
2023-01-23T09:29:37.764Z,101168.00
2023-01-23T09:33:43.054Z,101173.53
2023-01-23T09:38:01.231Z,101176.31
2023-01-23T09:42:08.463Z,101181.50
2023-01-23T09:46:19.143Z,101170.94
2023-01-23T09:50:28.977Z,101165.72
2023-01-23T09:54:39.936Z,101163.97
2023-01-23T09:58:47.420Z,101161.41
2023-01-23T10:02:50.656Z,101157.38
2023-01-23T10:07:18.317Z,101160.16
2023-01-23T10:11:30.699Z,101167.41
2023-01-23T10:15:52.769Z,101161.91
2023-01-23T10:20:15.198Z,101159.75
2023-01-23T10:24:40.596Z,101152.84
2023-01-23T10:28:45.358Z,101149.69
2023-01-23T10:32:52.655Z,101142.72
2023-01-23T10:37:06.458Z,101149.19
2023-01-23T10:41:21.148Z,101143.00
2023-01-23T10:45:26.292Z,101144.59
2023-01-23T10:49:31.417Z,101145.59
2023-01-23T10:53:44.542Z,101147.75
2023-01-23T10:57:51.091Z,101143.34
2023-01-23T11:02:00.039Z,101141.47
2023-01-23T11:06:05.312Z,101130.50
2023-01-23T11:10:21.775Z,101127.69
2023-01-23T11:14:26.122Z,101116.63
2023-01-23T11:18:36.105Z,101109.72
2023-01-23T11:22:42.199Z,101102.81
2023-01-23T11:26:45.682Z,101102.75
2023-01-23T11:31:00.887Z,101094.66
2023-01-23T11:35:16.009Z,101086.16
2023-01-23T11:39:32.308Z,101078.66
2023-01-23T11:43:35.546Z,101088.28
2023-01-23T11:48:00.931Z,101088.44
2023-01-23T11:52:22.791Z,101092.91
2023-01-23T11:56:44.970Z,101097.69
2023-01-23T12:00:56.883Z,101088.69
2023-01-23T12:05:24.529Z,101086.00
2023-01-23T12:09:34.225Z,101073.06
2023-01-23T12:13:50.451Z,101067.94
2023-01-23T12:22:20.258Z,101070.63
2023-01-23T12:26:27.079Z,101069.00
2023-01-23T12:31:09.763Z,101062.16
2023-01-23T12:35:28.088Z,101063.28
2023-01-23T12:39:54.865Z,101058.72
2023-01-23T12:44:03.447Z,101049.50
2023-01-23T12:48:12.865Z,101058.63
2023-01-23T12:52:24.416Z,101056.81
2023-01-23T12:56:31.751Z,101061.16
2023-01-23T13:00:55.312Z,101057.78
2023-01-23T13:05:10.659Z,101057.94
2023-01-23T13:09:23.862Z,101068.75
2023-01-23T13:13:28.773Z,101066.38
2023-01-23T13:17:37.771Z,101060.50
2023-01-23T13:21:58.554Z,101058.03
2023-01-23T13:26:31.427Z,101058.44
2023-01-23T13:30:45.789Z,101062.09
2023-01-23T13:34:48.823Z,101054.13
2023-01-23T13:39:25.377Z,101044.66
2023-01-23T13:43:44.288Z,101051.06
2023-01-23T14:23:51.877Z,101045.56
2023-01-23T14:28:04.505Z,101048.19
2023-01-23T14:32:23.349Z,101058.81
2023-01-23T14:36:26.405Z,101044.09
2023-01-23T14:40:43.089Z,101053.50
2023-01-23T14:44:53.254Z,101062.84
2023-01-23T14:48:57.467Z,101060.91
2023-01-23T14:53:02.355Z,101067.75
2023-01-23T14:57:10.273Z,101074.81
2023-01-23T15:01:13.496Z,101074.91
2023-01-23T15:05:23.516Z,101085.41
2023-01-23T15:09:31.210Z,101087.56
2023-01-23T15:13:41.787Z,101084.97
2023-01-23T15:17:45.658Z,101090.09
2023-01-23T15:21:48.754Z,101100.44
2023-01-23T15:26:10.651Z,101107.28
2023-01-23T15:30:43.410Z,101097.84
2023-01-23T15:34:55.004Z,101100.00
2023-01-23T15:39:00.002Z,101103.50
2023-01-23T15:43:05.762Z,101094.69
2023-01-23T15:47:10.835Z,101101.63
2023-01-23T15:51:14.426Z,101111.81
2023-01-23T15:55:17.906Z,101110.06
2023-01-23T15:59:21.583Z,101103.13
2023-01-23T16:03:26.246Z,101099.47
2023-01-23T16:07:34.435Z,101111.44
2023-01-23T16:11:38.846Z,101102.66
2023-01-23T16:15:42.020Z,101099.91
2023-01-23T16:19:46.515Z,101098.09
2023-01-23T16:23:49.828Z,101111.81
2023-01-23T16:27:52.884Z,101122.22
2023-01-23T16:31:57.003Z,101124.03
2023-01-23T16:36:02.453Z,101125.63
2023-01-23T16:40:06.309Z,101125.50
2023-01-23T16:44:11.518Z,101132.47
2023-01-23T16:48:25.373Z,101135.00
2023-01-23T16:52:31.574Z,101137.47
2023-01-23T16:56:39.107Z,101146.19
2023-01-23T17:00:43.516Z,101151.38
2023-01-23T17:04:46.894Z,101151.31
2023-01-23T17:08:52.421Z,101153.16
2023-01-23T17:12:58.174Z,101148.88
2023-01-23T17:17:06.080Z,101155.75
2023-01-23T17:21:15.191Z,101150.50
2023-01-23T17:25:21.681Z,101153.56
2023-01-23T17:29:24.793Z,101160.41
2023-01-23T17:33:32.259Z,101158.78
2023-01-23T17:37:36.314Z,101157.00
2023-01-23T17:41:40.764Z,101169.78
2023-01-23T17:45:45.857Z,101161.16
2023-01-23T17:49:54.472Z,101171.72
2023-01-23T17:53:58.981Z,101169.94
2023-01-23T17:58:03.392Z,101172.66
2023-01-23T18:02:23.858Z,101182.16
2023-01-23T18:06:29.635Z,101175.16
2023-01-23T18:10:35.130Z,101183.06
2023-01-23T18:14:48.157Z,101179.53
2023-01-23T18:18:53.940Z,101178.56
2023-01-23T18:22:57.928Z,101176.81
2023-01-23T18:27:09.874Z,101176.63
2023-01-23T18:31:19.770Z,101166.22
2023-01-23T18:35:35.207Z,101164.31
2023-01-23T18:39:50.133Z,101176.63
2023-01-23T18:44:03.664Z,101176.63
2023-01-23T18:48:24.613Z,101178.34
2023-01-23T18:52:42.600Z,101176.63
2023-01-23T18:56:57.476Z,101176.81
2023-01-23T19:01:16.213Z,101173.06
2023-01-23T19:05:29.072Z,101176.47
2023-01-23T19:09:35.236Z,101169.63
2023-01-23T19:13:45.363Z,101171.41
2023-01-23T19:17:52.287Z,101168.66
2023-01-23T19:21:57.474Z,101175.50
2023-01-23T19:26:00.968Z,101184.09
2023-01-23T19:30:04.670Z,101184.09
2023-01-23T19:34:08.519Z,101188.50
2023-01-23T19:38:14.948Z,101190.16
2023-01-23T19:42:18.055Z,101191.91
2023-01-23T19:46:22.197Z,101203.97
2023-01-23T19:50:25.260Z,101200.56
2023-01-23T19:54:29.855Z,101203.88
2023-01-23T19:58:33.024Z,101217.66
2023-01-23T20:02:36.081Z,101222.94
2023-01-23T20:06:40.824Z,101226.44
2023-01-23T20:10:45.261Z,101233.44
2023-01-23T20:14:48.681Z,101226.44
2023-01-23T20:18:53.523Z,101233.59
2023-01-23T20:22:56.568Z,101230.91
2023-01-23T20:27:00.995Z,101222.38
2023-01-23T20:31:08.644Z,101217.00
2023-01-23T20:35:12.501Z,101227.31
2023-01-23T20:39:16.245Z,101236.84
2023-01-23T20:43:20.797Z,101247.25
2023-01-23T20:47:23.884Z,101233.38
2023-01-23T20:51:27.470Z,101233.44
2023-01-23T20:55:30.472Z,101241.19
2023-01-23T20:59:35.050Z,101235.78
2023-01-23T21:03:40.273Z,101247.94
2023-01-23T21:07:43.336Z,101256.81
2023-01-23T21:11:46.413Z,101251.69
2023-01-23T21:15:59.255Z,101250.66
2023-01-23T21:20:02.412Z,101259.31
2023-01-23T21:24:05.730Z,101262.91
2023-01-23T21:28:08.874Z,101264.34
2023-01-23T21:32:13.408Z,101280.84
2023-01-23T21:36:19.091Z,101277.53
2023-01-23T21:40:22.319Z,101269.91
2023-01-23T21:44:25.329Z,101268.28
2023-01-23T21:48:31.474Z,101267.31
2023-01-23T21:52:34.529Z,101270.78
2023-01-23T21:56:37.556Z,101282.75
2023-01-23T22:00:58.330Z,101282.94
2023-01-23T22:05:02.802Z,101269.00
2023-01-23T22:09:06.844Z,101268.09
2023-01-23T22:13:09.887Z,101274.09
2023-01-23T22:17:12.898Z,101272.41
2023-01-23T22:21:17.294Z,101273.31
2023-01-23T22:25:20.526Z,101266.38
2023-01-23T22:29:23.884Z,101271.44
2023-01-23T22:33:39.481Z,101274.19
2023-01-23T22:37:44.701Z,101275.91
2023-01-23T22:41:48.483Z,101283.72
2023-01-23T22:45:51.604Z,101284.69
2023-01-23T22:49:54.597Z,101293.34
2023-01-23T22:54:00.014Z,101295.03
2023-01-23T22:58:03.067Z,101299.72
2023-01-23T23:02:06.311Z,101292.88
2023-01-23T23:06:12.121Z,101296.19
2023-01-23T23:10:16.590Z,101294.50
2023-01-23T23:14:19.970Z,101295.38
2023-01-23T23:18:23.038Z,101291.94
2023-01-23T23:22:26.135Z,101294.50
2023-01-23T23:26:32.320Z,101289.34
2023-01-23T23:30:35.353Z,101289.13
2023-01-23T23:34:38.396Z,101279.66
2023-01-23T23:38:41.451Z,101278.88
2023-01-23T23:42:46.092Z,101286.59
2023-01-23T23:46:49.121Z,101280.31
2023-01-23T23:50:52.746Z,101292.50
2023-01-23T23:54:55.737Z,101298.56
2023-01-23T23:59:00.242Z,101302.75
